sensor_id;sensor_type;location;lat;lon;timestamp;P1;durP1;ratioP1;P2;durP2;ratioP2
61627;SDS011;55193;52.102;5.242;2022-09-01T00:00:00;3.1;;;2.1;;
61627;SDS011;55193;52.102;5.242;2022-09-01T00:03:24;2.6;;;1.8;;
61627;SDS011;55193;52.102;5.242;2022-09-01T00:05:04;3.4;;;1.8;;
61627;SDS011;55193;52.102;5.242;2022-09-01T00:06:42;3.9;;;2.1;;
61627;SDS011;55193;52.102;5.242;2022-09-01T00:08:19;4.8;;;2.21;;
61627;SDS011;55193;52.102;5.242;2022-09-01T00:11:33;3.0;;;1.9;;
61627;SDS011;55193;52.102;5.242;2022-09-01T00:13:11;5.4;;;2.31;;
61627;SDS011;55193;52.102;5.242;2022-09-01T00:14:47;4.5;;;2.21;;
61627;SDS011;55193;52.102;5.242;2022-09-01T00:18:00;5.3;;;2.6;;
61627;SDS011;55193;52.102;5.242;2022-09-01T00:19:38;4.5;;;2.6;;
61627;SDS011;55193;52.102;5.242;2022-09-01T00:21:14;5.3;;;2.5;;
61627;SDS011;55193;52.102;5.242;2022-09-01T00:22:54;5.3;;;2.5;;
61627;SDS011;55193;52.102;5.242;2022-09-01T00:26:08;5.6;;;2.9;;
61627;SDS011;55193;52.102;5.242;2022-09-01T00:27:44;5.8;;;2.8;;
61627;SDS011;55193;52.102;5.242;2022-09-01T00:29:20;4.61;;;2.8;;
61627;SDS011;55193;52.102;5.242;2022-09-01T00:32:33;6.8;;;2.9;;
61627;SDS011;55193;52.102;5.242;2022-09-01T00:34:09;4.8;;;2.7;;
61627;SDS011;55193;52.102;5.242;2022-09-01T00:35:46;7.8;;;3.1;;
61627;SDS011;55193;52.102;5.242;2022-09-01T00:38:59;6.1;;;3.2;;
61627;SDS011;55193;52.102;5.242;2022-09-01T00:40:35;4.61;;;3.3;;
61627;SDS011;55193;52.102;5.242;2022-09-01T00:42:12;8.1;;;3.2;;
61627;SDS011;55193;52.102;5.242;2022-09-01T00:45:29;6.4;;;3.3;;
61627;SDS011;55193;52.102;5.242;2022-09-01T00:47:05;6.5;;;3.1;;
61627;SDS011;55193;52.102;5.242;2022-09-01T00:48:42;7.3;;;3.0;;
61627;SDS011;55193;52.102;5.242;2022-09-01T00:50:18;8.5;;;3.6;;
61627;SDS011;55193;52.102;5.242;2022-09-01T00:53:44;5.7;;;3.4;;
61627;SDS011;55193;52.102;5.242;2022-09-01T00:55:23;5.8;;;3.3;;
61627;SDS011;55193;52.102;5.242;2022-09-01T00:57:04;4.91;;;3.7;;
61627;SDS011;55193;52.102;5.242;2022-09-01T00:58:41;6.9;;;3.3;;
61627;SDS011;55193;52.102;5.242;2022-09-01T01:01:59;6.0;;;3.0;;
61627;SDS011;55193;52.102;5.242;2022-09-01T01:03:36;4.91;;;3.1;;
61627;SDS011;55193;52.102;5.242;2022-09-01T01:05:14;4.8;;;3.0;;
61627;SDS011;55193;52.102;5.242;2022-09-01T01:06:57;6.5;;;3.3;;
61627;SDS011;55193;52.102;5.242;2022-09-01T01:10:17;5.7;;;3.0;;
61627;SDS011;55193;52.102;5.242;2022-09-01T01:11:59;4.3;;;2.7;;
61627;SDS011;55193;52.102;5.242;2022-09-01T01:13:47;6.2;;;3.0;;
61627;SDS011;55193;52.102;5.242;2022-09-01T01:15:26;5.4;;;3.1;;
61627;SDS011;55193;52.102;5.242;2022-09-01T01:18:40;4.5;;;2.6;;
61627;SDS011;55193;52.102;5.242;2022-09-01T01:23:13;4.41;;;2.8;;
61627;SDS011;55193;52.102;5.242;2022-09-01T01:24:57;3.9;;;2.7;;
61627;SDS011;55193;52.102;5.242;2022-09-01T01:26:33;5.0;;;2.8;;
61627;SDS011;55193;52.102;5.242;2022-09-01T01:28:12;4.7;;;2.9;;
61627;SDS011;55193;52.102;5.242;2022-09-01T01:29:52;6.2;;;2.9;;
61627;SDS011;55193;52.102;5.242;2022-09-01T01:33:08;5.11;;;2.7;;
61627;SDS011;55193;52.102;5.242;2022-09-01T01:34:46;7.7;;;2.6;;
61627;SDS011;55193;52.102;5.242;2022-09-01T01:36:31;4.41;;;2.6;;
61627;SDS011;55193;52.102;5.242;2022-09-01T01:39:48;6.9;;;2.9;;
61627;SDS011;55193;52.102;5.242;2022-09-01T01:41:23;5.11;;;2.6;;
61627;SDS011;55193;52.102;5.242;2022-09-01T01:43:00;4.1;;;2.6;;
61627;SDS011;55193;52.102;5.242;2022-09-01T01:44:39;4.1;;;2.5;;
61627;SDS011;55193;52.102;5.242;2022-09-01T01:47:56;4.61;;;2.8;;
61627;SDS011;55193;52.102;5.242;2022-09-01T01:49:33;4.0;;;2.6;;
61627;SDS011;55193;52.102;5.242;2022-09-01T01:51:12;3.1;;;2.4;;
61627;SDS011;55193;52.102;5.242;2022-09-01T01:52:53;5.4;;;2.7;;
61627;SDS011;55193;52.102;5.242;2022-09-01T01:56:10;4.0;;;2.6;;
61627;SDS011;55193;52.102;5.242;2022-09-01T01:57:49;4.0;;;2.6;;
61627;SDS011;55193;52.102;5.242;2022-09-01T01:59:25;6.3;;;2.6;;
61627;SDS011;55193;52.102;5.242;2022-09-01T02:02:38;4.3;;;2.5;;
61627;SDS011;55193;52.102;5.242;2022-09-01T02:04:16;5.0;;;2.5;;
61627;SDS011;55193;52.102;5.242;2022-09-01T02:05:55;3.4;;;2.4;;
61627;SDS011;55193;52.102;5.242;2022-09-01T02:07:31;5.6;;;2.5;;
61627;SDS011;55193;52.102;5.242;2022-09-01T02:10:44;5.3;;;2.4;;
61627;SDS011;55193;52.102;5.242;2022-09-01T02:12:24;4.2;;;2.6;;
61627;SDS011;55193;52.102;5.242;2022-09-01T02:14:00;4.2;;;2.6;;
61627;SDS011;55193;52.102;5.242;2022-09-01T02:17:21;4.1;;;2.5;;
61627;SDS011;55193;52.102;5.242;2022-09-01T02:18:58;4.41;;;2.5;;
61627;SDS011;55193;52.102;5.242;2022-09-01T02:20:36;5.3;;;2.6;;
61627;SDS011;55193;52.102;5.242;2022-09-01T02:22:12;4.2;;;2.4;;
61627;SDS011;55193;52.102;5.242;2022-09-01T02:25:30;4.1;;;2.21;;
61627;SDS011;55193;52.102;5.242;2022-09-01T02:27:06;3.4;;;2.31;;
61627;SDS011;55193;52.102;5.242;2022-09-01T02:28:44;3.7;;;2.5;;
61627;SDS011;55193;52.102;5.242;2022-09-01T02:32:01;4.2;;;2.4;;
61627;SDS011;55193;52.102;5.242;2022-09-01T02:33:37;3.9;;;2.4;;
61627;SDS011;55193;52.102;5.242;2022-09-01T02:35:17;5.11;;;2.4;;
61627;SDS011;55193;52.102;5.242;2022-09-01T02:36:56;4.41;;;2.21;;
61627;SDS011;55193;52.102;5.242;2022-09-01T02:40:09;3.5;;;2.21;;
61627;SDS011;55193;52.102;5.242;2022-09-01T02:41:45;5.0;;;2.5;;
61627;SDS011;55193;52.102;5.242;2022-09-01T02:43:22;5.8;;;2.5;;
61627;SDS011;55193;52.102;5.242;2022-09-01T02:46:37;5.5;;;2.4;;
61627;SDS011;55193;52.102;5.242;2022-09-01T02:48:23;5.4;;;2.5;;
61627;SDS011;55193;52.102;5.242;2022-09-01T02:50:02;4.91;;;2.4;;
61627;SDS011;55193;52.102;5.242;2022-09-01T02:51:40;4.1;;;2.6;;
61627;SDS011;55193;52.102;5.242;2022-09-01T02:54:57;4.7;;;2.6;;
61627;SDS011;55193;52.102;5.242;2022-09-01T02:56:33;4.2;;;2.4;;
61627;SDS011;55193;52.102;5.242;2022-09-01T02:58:15;5.6;;;2.7;;
61627;SDS011;55193;52.102;5.242;2022-09-01T02:59:57;3.8;;;2.31;;
61627;SDS011;55193;52.102;5.242;2022-09-01T03:03:11;4.91;;;2.5;;
61627;SDS011;55193;52.102;5.242;2022-09-01T03:04:51;3.2;;;2.31;;
61627;SDS011;55193;52.102;5.242;2022-09-01T03:06:33;5.11;;;2.9;;
61627;SDS011;55193;52.102;5.242;2022-09-01T03:08:14;5.6;;;2.5;;
61627;SDS011;55193;52.102;5.242;2022-09-01T03:11:30;5.11;;;2.6;;
61627;SDS011;55193;52.102;5.242;2022-09-01T03:13:11;4.61;;;2.4;;
61627;SDS011;55193;52.102;5.242;2022-09-01T03:14:49;4.91;;;2.4;;
61627;SDS011;55193;52.102;5.242;2022-09-01T03:18:03;5.5;;;2.4;;
61627;SDS011;55193;52.102;5.242;2022-09-01T03:19:43;3.6;;;2.4;;
61627;SDS011;55193;52.102;5.242;2022-09-01T03:21:20;5.2;;;2.7;;
61627;SDS011;55193;52.102;5.242;2022-09-01T03:22:58;4.8;;;2.7;;
61627;SDS011;55193;52.102;5.242;2022-09-01T03:26:12;3.5;;;2.5;;
61627;SDS011;55193;52.102;5.242;2022-09-01T03:27:50;4.3;;;2.5;;
61627;SDS011;55193;52.102;5.242;2022-09-01T03:29:27;4.41;;;2.4;;
61627;SDS011;55193;52.102;5.242;2022-09-01T03:32:41;5.11;;;2.6;;
61627;SDS011;55193;52.102;5.242;2022-09-01T03:34:22;3.9;;;2.21;;
61627;SDS011;55193;52.102;5.242;2022-09-01T03:35:58;3.2;;;2.21;;
61627;SDS011;55193;52.102;5.242;2022-09-01T03:37:36;3.0;;;2.31;;
61627;SDS011;55193;52.102;5.242;2022-09-01T03:40:49;5.7;;;2.5;;
61627;SDS011;55193;52.102;5.242;2022-09-01T03:42:28;4.5;;;2.7;;
61627;SDS011;55193;52.102;5.242;2022-09-01T03:44:06;4.7;;;2.6;;
61627;SDS011;55193;52.102;5.242;2022-09-01T03:47:20;3.9;;;2.5;;
61627;SDS011;55193;52.102;5.242;2022-09-01T03:48:59;5.8;;;2.8;;
61627;SDS011;55193;52.102;5.242;2022-09-01T03:50:36;4.5;;;2.7;;
61627;SDS011;55193;52.102;5.242;2022-09-01T03:52:18;4.0;;;2.4;;
61627;SDS011;55193;52.102;5.242;2022-09-01T03:55:31;4.2;;;2.4;;
61627;SDS011;55193;52.102;5.242;2022-09-01T03:57:10;3.8;;;2.7;;
61627;SDS011;55193;52.102;5.242;2022-09-01T03:58:46;4.3;;;2.4;;
61627;SDS011;55193;52.102;5.242;2022-09-01T04:02:01;5.6;;;2.8;;
61627;SDS011;55193;52.102;5.242;2022-09-01T04:03:39;4.0;;;2.7;;
61627;SDS011;55193;52.102;5.242;2022-09-01T04:05:17;4.5;;;2.6;;
61627;SDS011;55193;52.102;5.242;2022-09-01T04:06:54;4.5;;;2.7;;
61627;SDS011;55193;52.102;5.242;2022-09-01T04:10:10;4.2;;;2.7;;
61627;SDS011;55193;52.102;5.242;2022-09-01T04:11:47;4.0;;;2.6;;
61627;SDS011;55193;52.102;5.242;2022-09-01T04:13:26;4.0;;;2.5;;
61627;SDS011;55193;52.102;5.242;2022-09-01T04:19:38;7.9;;;3.0;;
61627;SDS011;55193;52.102;5.242;2022-09-01T04:22:51;4.0;;;2.6;;
61627;SDS011;55193;52.102;5.242;2022-09-01T04:24:28;3.8;;;2.7;;
61627;SDS011;55193;52.102;5.242;2022-09-01T04:26:09;4.1;;;2.7;;
61627;SDS011;55193;52.102;5.242;2022-09-01T04:27:48;4.3;;;2.7;;
61627;SDS011;55193;52.102;5.242;2022-09-01T04:31:08;3.4;;;2.6;;
61627;SDS011;55193;52.102;5.242;2022-09-01T04:32:51;5.6;;;2.6;;
61627;SDS011;55193;52.102;5.242;2022-09-01T04:34:28;4.1;;;2.6;;
61627;SDS011;55193;52.102;5.242;2022-09-01T04:36:11;5.3;;;2.8;;
61627;SDS011;55193;52.102;5.242;2022-09-01T04:39:30;4.41;;;2.6;;
61627;SDS011;55193;52.102;5.242;2022-09-01T04:41:08;4.2;;;2.5;;
61627;SDS011;55193;52.102;5.242;2022-09-01T04:42:44;3.2;;;2.5;;
61627;SDS011;55193;52.102;5.242;2022-09-01T04:45:58;3.4;;;2.7;;
61627;SDS011;55193;52.102;5.242;2022-09-01T04:47:40;3.2;;;2.4;;
61627;SDS011;55193;52.102;5.242;2022-09-01T04:49:20;4.3;;;2.5;;
61627;SDS011;55193;52.102;5.242;2022-09-01T04:50:58;3.9;;;2.31;;
61627;SDS011;55193;52.102;5.242;2022-09-01T04:54:13;4.2;;;2.4;;
61627;SDS011;55193;52.102;5.242;2022-09-01T04:55:53;4.7;;;2.5;;
61627;SDS011;55193;52.102;5.242;2022-09-01T04:57:30;3.3;;;2.6;;
61627;SDS011;55193;52.102;5.242;2022-09-01T04:59:07;3.9;;;2.4;;
61627;SDS011;55193;52.102;5.242;2022-09-01T05:02:26;4.1;;;2.5;;
61627;SDS011;55193;52.102;5.242;2022-09-01T05:04:02;4.0;;;2.4;;
61627;SDS011;55193;52.102;5.242;2022-09-01T05:05:39;10.21;;;3.7;;
61627;SDS011;55193;52.102;5.242;2022-09-01T05:08:56;5.4;;;2.4;;
61627;SDS011;55193;52.102;5.242;2022-09-01T05:10:37;3.9;;;2.4;;
61627;SDS011;55193;52.102;5.242;2022-09-01T05:12:15;4.1;;;2.5;;
61627;SDS011;55193;52.102;5.242;2022-09-01T05:13:56;4.2;;;2.6;;
61627;SDS011;55193;52.102;5.242;2022-09-01T05:17:12;5.0;;;2.5;;
61627;SDS011;55193;52.102;5.242;2022-09-01T05:18:49;4.0;;;2.5;;
61627;SDS011;55193;52.102;5.242;2022-09-01T05:20:29;8.81;;;2.8;;
61627;SDS011;55193;52.102;5.242;2022-09-01T05:22:06;4.1;;;2.5;;
61627;SDS011;55193;52.102;5.242;2022-09-01T05:25:23;4.1;;;2.5;;
61627;SDS011;55193;52.102;5.242;2022-09-01T05:26:59;5.7;;;2.6;;
61627;SDS011;55193;52.102;5.242;2022-09-01T05:28:37;3.2;;;2.31;;
61627;SDS011;55193;52.102;5.242;2022-09-01T05:31:54;2.8;;;2.21;;
61627;SDS011;55193;52.102;5.242;2022-09-01T05:33:31;3.3;;;2.4;;
61627;SDS011;55193;52.102;5.242;2022-09-01T05:35:08;3.8;;;2.4;;
61627;SDS011;55193;52.102;5.242;2022-09-01T05:36:45;3.8;;;2.4;;
61627;SDS011;55193;52.102;5.242;2022-09-01T05:40:01;7.1;;;2.31;;
61627;SDS011;55193;52.102;5.242;2022-09-01T05:41:40;4.5;;;2.31;;
61627;SDS011;55193;52.102;5.242;2022-09-01T05:43:17;7.1;;;2.31;;
61627;SDS011;55193;52.102;5.242;2022-09-01T05:46:30;3.3;;;2.21;;
61627;SDS011;55193;52.102;5.242;2022-09-01T05:48:08;4.2;;;2.4;;
61627;SDS011;55193;52.102;5.242;2022-09-01T05:49:46;5.11;;;2.5;;
61627;SDS011;55193;52.102;5.242;2022-09-01T05:51:27;4.5;;;2.4;;
61627;SDS011;55193;52.102;5.242;2022-09-01T05:54:46;7.1;;;2.5;;
61627;SDS011;55193;52.102;5.242;2022-09-01T05:56:23;3.3;;;2.31;;
61627;SDS011;55193;52.102;5.242;2022-09-01T05:58:01;6.5;;;2.9;;
61627;SDS011;55193;52.102;5.242;2022-09-01T06:01:21;4.7;;;2.31;;
61627;SDS011;55193;52.102;5.242;2022-09-01T06:03:03;5.0;;;2.4;;
61627;SDS011;55193;52.102;5.242;2022-09-01T06:04:43;4.0;;;2.31;;
61627;SDS011;55193;52.102;5.242;2022-09-01T06:06:21;6.3;;;2.1;;
61627;SDS011;55193;52.102;5.242;2022-09-01T06:09:38;10.3;;;3.5;;
61627;SDS011;55193;52.102;5.242;2022-09-01T06:11:17;3.8;;;2.1;;
61627;SDS011;55193;52.102;5.242;2022-09-01T06:12:55;7.2;;;2.21;;
61627;SDS011;55193;52.102;5.242;2022-09-01T06:14:31;14.2;;;4.0;;
61627;SDS011;55193;52.102;5.242;2022-09-01T06:17:45;3.0;;;2.1;;
61627;SDS011;55193;52.102;5.242;2022-09-01T06:19:21;6.2;;;2.1;;
61627;SDS011;55193;52.102;5.242;2022-09-01T06:20:58;3.7;;;2.31;;
61627;SDS011;55193;52.102;5.242;2022-09-01T06:24:17;4.41;;;2.31;;
61627;SDS011;55193;52.102;5.242;2022-09-01T06:25:54;4.5;;;2.31;;
61627;SDS011;55193;52.102;5.242;2022-09-01T06:27:31;6.4;;;2.0;;
61627;SDS011;55193;52.102;5.242;2022-09-01T06:29:09;3.5;;;2.1;;
61627;SDS011;55193;52.102;5.242;2022-09-01T06:32:27;3.2;;;2.21;;
61627;SDS011;55193;52.102;5.242;2022-09-01T06:34:05;2.9;;;2.1;;
61627;SDS011;55193;52.102;5.242;2022-09-01T06:35:46;3.8;;;2.21;;
61627;SDS011;55193;52.102;5.242;2022-09-01T06:39:00;3.6;;;2.1;;
61627;SDS011;55193;52.102;5.242;2022-09-01T06:40:40;5.3;;;2.1;;
61627;SDS011;55193;52.102;5.242;2022-09-01T06:42:18;3.9;;;2.0;;
61627;SDS011;55193;52.102;5.242;2022-09-01T06:43:55;3.3;;;2.21;;
61627;SDS011;55193;52.102;5.242;2022-09-01T06:47:14;4.5;;;2.1;;
61627;SDS011;55193;52.102;5.242;2022-09-01T06:48:50;5.7;;;2.1;;
61627;SDS011;55193;52.102;5.242;2022-09-01T06:50:27;5.9;;;2.31;;
61627;SDS011;55193;52.102;5.242;2022-09-01T06:52:03;4.7;;;1.9;;
61627;SDS011;55193;52.102;5.242;2022-09-01T06:55:17;3.7;;;2.21;;
61627;SDS011;55193;52.102;5.242;2022-09-01T06:56:53;4.7;;;2.21;;
61627;SDS011;55193;52.102;5.242;2022-09-01T06:58:30;5.5;;;2.21;;
61627;SDS011;55193;52.102;5.242;2022-09-01T07:01:47;5.4;;;2.31;;
61627;SDS011;55193;52.102;5.242;2022-09-01T07:03:24;5.3;;;2.5;;
61627;SDS011;55193;52.102;5.242;2022-09-01T07:05:01;4.7;;;2.4;;
61627;SDS011;55193;52.102;5.242;2022-09-01T07:08:18;6.1;;;2.5;;
61627;SDS011;55193;52.102;5.242;2022-09-01T07:09:57;6.2;;;2.1;;
61627;SDS011;55193;52.102;5.242;2022-09-01T07:11:33;3.8;;;2.1;;
61627;SDS011;55193;52.102;5.242;2022-09-01T07:13:11;23.0;;;5.6;;
61627;SDS011;55193;52.102;5.242;2022-09-01T07:16:25;4.61;;;2.0;;
61627;SDS011;55193;52.102;5.242;2022-09-01T07:18:03;4.3;;;2.0;;
61627;SDS011;55193;52.102;5.242;2022-09-01T07:19:39;6.4;;;2.21;;
61627;SDS011;55193;52.102;5.242;2022-09-01T07:22:53;6.0;;;2.0;;
61627;SDS011;55193;52.102;5.242;2022-09-01T07:24:32;5.4;;;2.4;;
61627;SDS011;55193;52.102;5.242;2022-09-01T07:26:17;6.3;;;2.21;;
61627;SDS011;55193;52.102;5.242;2022-09-01T07:27:56;4.61;;;2.1;;
61627;SDS011;55193;52.102;5.242;2022-09-01T07:31:15;10.5;;;2.4;;
61627;SDS011;55193;52.102;5.242;2022-09-01T07:34:40;4.61;;;2.0;;
61627;SDS011;55193;52.102;5.242;2022-09-01T07:36:16;6.8;;;2.31;;
61627;SDS011;55193;52.102;5.242;2022-09-01T07:39:31;3.4;;;1.8;;
61627;SDS011;55193;52.102;5.242;2022-09-01T07:41:07;3.8;;;1.8;;
61627;SDS011;55193;52.102;5.242;2022-09-01T07:42:43;5.4;;;1.9;;
61627;SDS011;55193;52.102;5.242;2022-09-01T07:44:20;5.8;;;1.8;;
61627;SDS011;55193;52.102;5.242;2022-09-01T07:47:38;3.3;;;1.8;;
61627;SDS011;55193;52.102;5.242;2022-09-01T07:49:15;3.0;;;1.8;;
61627;SDS011;55193;52.102;5.242;2022-09-01T07:50:52;3.8;;;1.8;;
61627;SDS011;55193;52.102;5.242;2022-09-01T07:54:12;2.6;;;1.6;;
61627;SDS011;55193;52.102;5.242;2022-09-01T07:55:50;6.4;;;1.6;;
61627;SDS011;55193;52.102;5.242;2022-09-01T07:57:30;4.2;;;1.7;;
61627;SDS011;55193;52.102;5.242;2022-09-01T07:59:08;3.6;;;1.8;;
61627;SDS011;55193;52.102;5.242;2022-09-01T08:02:23;3.4;;;1.7;;
61627;SDS011;55193;52.102;5.242;2022-09-01T08:04:01;3.7;;;1.5;;
61627;SDS011;55193;52.102;5.242;2022-09-01T08:05:37;4.91;;;1.6;;
61627;SDS011;55193;52.102;5.242;2022-09-01T08:08:53;3.5;;;1.6;;
61627;SDS011;55193;52.102;5.242;2022-09-01T08:10:32;4.61;;;1.4;;
61627;SDS011;55193;52.102;5.242;2022-09-01T08:12:09;3.6;;;1.5;;
61627;SDS011;55193;52.102;5.242;2022-09-01T08:13:46;5.2;;;1.5;;
61627;SDS011;55193;52.102;5.242;2022-09-01T08:16:59;4.61;;;1.4;;
61627;SDS011;55193;52.102;5.242;2022-09-01T08:18:37;3.6;;;1.5;;
61627;SDS011;55193;52.102;5.242;2022-09-01T08:20:13;5.2;;;1.3;;
61627;SDS011;55193;52.102;5.242;2022-09-01T08:23:26;3.5;;;1.3;;
61627;SDS011;55193;52.102;5.242;2022-09-01T08:25:03;5.9;;;1.4;;
61627;SDS011;55193;52.102;5.242;2022-09-01T08:26:40;4.2;;;1.2;;
61627;SDS011;55193;52.102;5.242;2022-09-01T08:28:16;6.5;;;1.6;;
61627;SDS011;55193;52.102;5.242;2022-09-01T08:31:30;4.1;;;1.3;;
61627;SDS011;55193;52.102;5.242;2022-09-01T08:33:06;7.1;;;1.3;;
61627;SDS011;55193;52.102;5.242;2022-09-01T08:34:43;4.41;;;1.5;;
61627;SDS011;55193;52.102;5.242;2022-09-01T08:37:57;5.5;;;1.3;;
61627;SDS011;55193;52.102;5.242;2022-09-01T08:39:35;5.7;;;1.4;;
61627;SDS011;55193;52.102;5.242;2022-09-01T08:41:14;8.2;;;1.4;;
61627;SDS011;55193;52.102;5.242;2022-09-01T08:44:46;6.4;;;1.5;;
61627;SDS011;55193;52.102;5.242;2022-09-01T08:46:35;3.7;;;1.4;;
61627;SDS011;55193;52.102;5.242;2022-09-01T08:48:15;6.1;;;2.0;;
61627;SDS011;55193;52.102;5.242;2022-09-01T08:49:57;7.2;;;1.3;;
61627;SDS011;55193;52.102;5.242;2022-09-01T08:51:36;8.5;;;1.4;;
61627;SDS011;55193;52.102;5.242;2022-09-01T08:55:05;5.11;;;1.5;;
61627;SDS011;55193;52.102;5.242;2022-09-01T08:56:50;5.4;;;1.4;;
61627;SDS011;55193;52.102;5.242;2022-09-01T08:58:30;4.61;;;1.6;;
61627;SDS011;55193;52.102;5.242;2022-09-01T09:00:09;5.7;;;1.5;;
61627;SDS011;55193;52.102;5.242;2022-09-01T09:01:51;11.9;;;2.5;;
61627;SDS011;55193;52.102;5.242;2022-09-01T09:05:27;4.41;;;1.3;;
61627;SDS011;55193;52.102;5.242;2022-09-01T09:07:09;2.5;;;1.2;;
61627;SDS011;55193;52.102;5.242;2022-09-01T09:08:55;2.9;;;1.0;;
61627;SDS011;55193;52.102;5.242;2022-09-01T09:10:37;3.2;;;1.11;;
61627;SDS011;55193;52.102;5.242;2022-09-01T09:12:42;4.7;;;1.2;;
61627;SDS011;55193;52.102;5.242;2022-09-01T09:14:33;4.1;;;1.2;;
61627;SDS011;55193;52.102;5.242;2022-09-01T09:16:26;8.0;;;1.6;;
61627;SDS011;55193;52.102;5.242;2022-09-01T09:20:04;8.1;;;1.5;;
61627;SDS011;55193;52.102;5.242;2022-09-01T09:21:43;6.4;;;1.3;;
61627;SDS011;55193;52.102;5.242;2022-09-01T09:23:23;4.3;;;1.3;;
61627;SDS011;55193;52.102;5.242;2022-09-01T09:25:07;3.7;;;1.11;;
61627;SDS011;55193;52.102;5.242;2022-09-01T09:28:23;3.0;;;1.11;;
61627;SDS011;55193;52.102;5.242;2022-09-01T09:30:00;5.6;;;1.3;;
61627;SDS011;55193;52.102;5.242;2022-09-01T09:31:43;4.5;;;1.0;;
61627;SDS011;55193;52.102;5.242;2022-09-01T09:33:37;6.4;;;1.3;;
61627;SDS011;55193;52.102;5.242;2022-09-01T09:35:19;4.3;;;1.2;;
61627;SDS011;55193;52.102;5.242;2022-09-01T09:39:04;4.91;;;1.11;;
61627;SDS011;55193;52.102;5.242;2022-09-01T09:40:56;7.5;;;1.4;;
61627;SDS011;55193;52.102;5.242;2022-09-01T09:42:39;4.2;;;1.4;;
61627;SDS011;55193;52.102;5.242;2022-09-01T09:44:20;4.41;;;1.6;;
61627;SDS011;55193;52.102;5.242;2022-09-01T09:46:35;22.0;;;2.31;;
61627;SDS011;55193;52.102;5.242;2022-09-01T09:48:25;3.5;;;1.11;;
61627;SDS011;55193;52.102;5.242;2022-09-01T09:50:09;2.6;;;1.11;;
61627;SDS011;55193;52.102;5.242;2022-09-01T09:53:46;2.9;;;1.0;;
61627;SDS011;55193;52.102;5.242;2022-09-01T09:55:25;3.9;;;1.2;;
61627;SDS011;55193;52.102;5.242;2022-09-01T09:57:05;1.8;;;1.11;;
61627;SDS011;55193;52.102;5.242;2022-09-01T09:58:47;4.3;;;1.3;;
61627;SDS011;55193;52.102;5.242;2022-09-01T10:00:26;2.9;;;1.2;;
61627;SDS011;55193;52.102;5.242;2022-09-01T10:04:30;3.6;;;1.2;;
61627;SDS011;55193;52.102;5.242;2022-09-01T10:06:10;4.7;;;1.2;;
61627;SDS011;55193;52.102;5.242;2022-09-01T10:07:50;5.6;;;1.4;;
61627;SDS011;55193;52.102;5.242;2022-09-01T10:09:35;2.7;;;1.11;;
61627;SDS011;55193;52.102;5.242;2022-09-01T10:11:24;2.5;;;1.11;;
61627;SDS011;55193;52.102;5.242;2022-09-01T10:13:04;4.5;;;1.11;;
61627;SDS011;55193;52.102;5.242;2022-09-01T10:16:28;4.61;;;1.3;;
61627;SDS011;55193;52.102;5.242;2022-09-01T10:18:08;3.7;;;1.11;;
61627;SDS011;55193;52.102;5.242;2022-09-01T10:19:51;1.8;;;1.2;;
61627;SDS011;55193;52.102;5.242;2022-09-01T10:21:32;6.3;;;1.2;;
61627;SDS011;55193;52.102;5.242;2022-09-01T10:24:48;3.0;;;1.11;;
61627;SDS011;55193;52.102;5.242;2022-09-01T10:26:25;3.6;;;1.0;;
61627;SDS011;55193;52.102;5.242;2022-09-01T10:28:08;2.8;;;0.9;;
61627;SDS011;55193;52.102;5.242;2022-09-01T10:29:50;2.31;;;0.9;;
61627;SDS011;55193;52.102;5.242;2022-09-01T10:33:10;3.5;;;1.0;;
61627;SDS011;55193;52.102;5.242;2022-09-01T10:34:50;8.0;;;1.11;;
61627;SDS011;55193;52.102;5.242;2022-09-01T10:36:28;2.0;;;0.9;;
61627;SDS011;55193;52.102;5.242;2022-09-01T10:38:06;7.6;;;1.7;;
61627;SDS011;55193;52.102;5.242;2022-09-01T10:42:15;2.31;;;1.0;;
61627;SDS011;55193;52.102;5.242;2022-09-01T10:45:30;3.9;;;1.5;;
61627;SDS011;55193;52.102;5.242;2022-09-01T10:47:09;4.8;;;1.11;;
61627;SDS011;55193;52.102;5.242;2022-09-01T10:48:59;3.5;;;1.0;;
61627;SDS011;55193;52.102;5.242;2022-09-01T10:50:35;3.2;;;0.9;;
61627;SDS011;55193;52.102;5.242;2022-09-01T10:54:49;3.1;;;0.9;;
61627;SDS011;55193;52.102;5.242;2022-09-01T10:56:36;7.9;;;1.0;;
61627;SDS011;55193;52.102;5.242;2022-09-01T10:58:34;2.8;;;0.9;;
61627;SDS011;55193;52.102;5.242;2022-09-01T11:00:52;2.4;;;1.0;;
61627;SDS011;55193;52.102;5.242;2022-09-01T11:02:29;3.6;;;1.0;;
61627;SDS011;55193;52.102;5.242;2022-09-01T11:04:06;3.6;;;1.0;;
61627;SDS011;55193;52.102;5.242;2022-09-01T11:05:59;2.9;;;1.11;;
61627;SDS011;55193;52.102;5.242;2022-09-01T11:07:37;4.0;;;1.3;;
61627;SDS011;55193;52.102;5.242;2022-09-01T11:10:58;6.9;;;1.4;;
61627;SDS011;55193;52.102;5.242;2022-09-01T11:12:46;4.0;;;1.2;;
61627;SDS011;55193;52.102;5.242;2022-09-01T11:14:47;3.7;;;1.11;;
61627;SDS011;55193;52.102;5.242;2022-09-01T11:16:31;3.3;;;1.4;;
61627;SDS011;55193;52.102;5.242;2022-09-01T11:18:13;2.7;;;1.4;;
61627;SDS011;55193;52.102;5.242;2022-09-01T11:19:55;3.0;;;1.2;;
61627;SDS011;55193;52.102;5.242;2022-09-01T11:23:22;3.8;;;1.11;;
61627;SDS011;55193;52.102;5.242;2022-09-01T11:25:09;5.0;;;1.11;;
61627;SDS011;55193;52.102;5.242;2022-09-01T11:27:55;4.1;;;1.11;;
61627;SDS011;55193;52.102;5.242;2022-09-01T11:29:50;1.9;;;0.9;;
61627;SDS011;55193;52.102;5.242;2022-09-01T11:31:31;2.0;;;1.11;;
61627;SDS011;55193;52.102;5.242;2022-09-01T11:33:24;3.7;;;1.2;;
61627;SDS011;55193;52.102;5.242;2022-09-01T11:35:13;1.5;;;1.11;;
61627;SDS011;55193;52.102;5.242;2022-09-01T11:36:54;2.8;;;1.3;;
61627;SDS011;55193;52.102;5.242;2022-09-01T11:40:22;2.31;;;1.0;;
61627;SDS011;55193;52.102;5.242;2022-09-01T11:42:02;1.7;;;1.0;;
61627;SDS011;55193;52.102;5.242;2022-09-01T11:43:45;1.9;;;1.11;;
61627;SDS011;55193;52.102;5.242;2022-09-01T11:45:22;2.5;;;0.8;;
61627;SDS011;55193;52.102;5.242;2022-09-01T11:47:03;3.0;;;0.8;;
61627;SDS011;55193;52.102;5.242;2022-09-01T11:50:22;2.5;;;1.2;;
61627;SDS011;55193;52.102;5.242;2022-09-01T11:52:02;2.9;;;1.0;;
61627;SDS011;55193;52.102;5.242;2022-09-01T11:53:39;1.5;;;0.9;;
61627;SDS011;55193;52.102;5.242;2022-09-01T11:57:21;1.4;;;0.8;;
61627;SDS011;55193;52.102;5.242;2022-09-01T11:59:02;1.7;;;0.9;;
61627;SDS011;55193;52.102;5.242;2022-09-01T12:00:40;1.3;;;0.9;;
61627;SDS011;55193;52.102;5.242;2022-09-01T12:02:18;4.1;;;0.8;;
61627;SDS011;55193;52.102;5.242;2022-09-01T12:03:57;2.21;;;1.0;;
61627;SDS011;55193;52.102;5.242;2022-09-01T12:05:58;2.0;;;0.8;;
61627;SDS011;55193;52.102;5.242;2022-09-01T12:09:20;1.8;;;0.9;;
61627;SDS011;55193;52.102;5.242;2022-09-01T12:11:01;8.2;;;1.9;;
61627;SDS011;55193;52.102;5.242;2022-09-01T12:12:40;2.0;;;0.9;;
61627;SDS011;55193;52.102;5.242;2022-09-01T12:14:18;1.6;;;0.9;;
61627;SDS011;55193;52.102;5.242;2022-09-01T12:17:35;2.31;;;0.8;;
61627;SDS011;55193;52.102;5.242;2022-09-01T12:19:21;4.3;;;0.9;;
61627;SDS011;55193;52.102;5.242;2022-09-01T12:21:02;4.2;;;0.9;;
61627;SDS011;55193;52.102;5.242;2022-09-01T12:22:41;2.8;;;1.0;;
61627;SDS011;55193;52.102;5.242;2022-09-01T12:25:58;4.3;;;0.9;;
61627;SDS011;55193;52.102;5.242;2022-09-01T12:27:37;1.6;;;0.8;;
61627;SDS011;55193;52.102;5.242;2022-09-01T12:29:13;3.0;;;1.0;;
61627;SDS011;55193;52.102;5.242;2022-09-01T12:32:30;2.1;;;0.9;;
61627;SDS011;55193;52.102;5.242;2022-09-01T12:34:20;4.5;;;1.4;;
61627;SDS011;55193;52.102;5.242;2022-09-01T12:36:19;1.9;;;0.9;;
61627;SDS011;55193;52.102;5.242;2022-09-01T12:38:31;2.4;;;1.11;;
61627;SDS011;55193;52.102;5.242;2022-09-01T12:40:19;2.6;;;0.9;;
61627;SDS011;55193;52.102;5.242;2022-09-01T12:42:00;3.5;;;1.2;;
61627;SDS011;55193;52.102;5.242;2022-09-01T12:43:44;1.7;;;0.8;;
61627;SDS011;55193;52.102;5.242;2022-09-01T12:47:43;1.8;;;0.7;;
61627;SDS011;55193;52.102;5.242;2022-09-01T12:49:26;2.6;;;0.7;;
61627;SDS011;55193;52.102;5.242;2022-09-01T12:51:14;1.6;;;0.9;;
61627;SDS011;55193;52.102;5.242;2022-09-01T12:52:54;1.4;;;0.9;;
61627;SDS011;55193;52.102;5.242;2022-09-01T12:54:32;3.4;;;1.0;;
61627;SDS011;55193;52.102;5.242;2022-09-01T12:56:45;2.6;;;1.0;;
61627;SDS011;55193;52.102;5.242;2022-09-01T12:58:24;1.9;;;0.9;;
61627;SDS011;55193;52.102;5.242;2022-09-01T13:01:47;4.3;;;1.11;;
61627;SDS011;55193;52.102;5.242;2022-09-01T13:03:26;1.11;;;0.7;;
61627;SDS011;55193;52.102;5.242;2022-09-01T13:05:20;3.2;;;1.0;;